Time;durP1;ratioP1;P1;durP2;ratioP2;P2;SDS_P1;SDS_P2;PMS_P1;PMS_P2;Temp;Humidity;BMP_temperature;BMP_pressure;BME280_temperature;BME280_humidity;BME280_pressure;Samples;Min_cycle;Max_cycle;Signal;HPM_P1;HPM_P2
2022/03/30 00:01:00;;;;;;;29.17;15.90;;;;;;;;;;4983580;28;20266;-78
2022/03/30 00:05:58;;;;;;;25.35;17.00;;;;;;;;;;4767411;29;20232;-76
2022/03/30 00:08:24;;;;;;;26.45;15.25;;;;;;;;;;4958004;28;20196;-77
2022/03/30 00:10:50;;;;;;;21.50;15.20;;;;;;;;;;4960044;28;20216;-77
2022/03/30 00:13:16;;;;;;;28.73;15.77;;;;;;;;;;4959922;28;20181;-77
2022/03/30 00:15:42;;;;;;;27.90;16.93;;;;;;;;;;4949496;28;20456;-77
2022/03/30 00:18:08;;;;;;;28.40;17.10;;;;;;;;;;4950684;29;20437;-77
2022/03/30 00:20:34;;;;;;;25.60;15.93;;;;;;;;;;4959218;28;20680;-78
2022/03/30 00:23:00;;;;;;;31.60;16.27;;;;;;;;;;4949100;29;20444;-77
2022/03/30 00:25:26;;;;;;;28.30;17.27;;;;;;;;;;4944033;29;20209;-77
2022/03/30 00:27:52;;;;;;;27.02;17.40;;;;;;;;;;4959933;29;20188;-77
2022/03/30 00:30:19;;;;;;;28.25;17.10;;;;;;;;;;4945141;29;20197;-77
2022/03/30 00:32:45;;;;;;;25.33;17.10;;;;;;;;;;4944925;29;20193;-77
2022/03/30 00:35:11;;;;;;;32.30;17.70;;;;;;;;;;4937028;29;20197;-77
2022/03/30 00:37:38;;;;;;;35.30;17.30;;;;;;;;;;4944402;29;20196;-77
2022/03/30 00:40:05;;;;;;;29.52;18.73;;;;;;;;;;4944786;29;20208;-77
2022/03/30 00:42:31;;;;;;;22.08;17.23;;;;;;;;;;4952154;29;20189;-78
2022/03/30 00:44:58;;;;;;;19.48;16.67;;;;;;;;;;4943936;29;20258;-78
2022/03/30 00:47:27;;;;;;;25.80;17.50;;;;;;;;;;4945297;29;20593;-77
2022/03/30 00:49:53;;;;;;;26.80;16.88;;;;;;;;;;4936497;29;20193;-77
2022/03/30 00:52:20;;;;;;;32.67;15.85;;;;;;;;;;4944582;29;20773;-77
2022/03/30 00:54:48;;;;;;;30.90;15.25;;;;;;;;;;4944903;29;20203;-77
2022/03/30 00:57:15;;;;;;;21.30;16.38;;;;;;;;;;4947352;29;20196;-78
2022/03/30 00:59:41;;;;;;;26.08;17.70;;;;;;;;;;4962239;29;20272;-78
2022/03/30 01:02:09;;;;;;;29.70;17.35;;;;;;;;;;4963727;28;20177;-78
2022/03/30 01:04:35;;;;;;;24.13;15.80;;;;;;;;;;4946076;29;20288;-78
2022/03/30 01:07:01;;;;;;;23.73;16.60;;;;;;;;;;4947992;29;20216;-78
2022/03/30 01:09:27;;;;;;;25.70;15.10;;;;;;;;;;4948534;29;20676;-77
2022/03/30 01:11:54;;;;;;;23.52;15.70;;;;;;;;;;4947373;29;20643;-77
2022/03/30 01:14:20;;;;;;;25.23;15.80;;;;;;;;;;4961902;28;20189;-78
2022/03/30 01:16:46;;;;;;;24.75;15.75;;;;;;;;;;4947974;29;20196;-78
2022/03/30 01:19:12;;;;;;;26.42;16.25;;;;;;;;;;4962361;28;20245;-77
2022/03/30 01:21:39;;;;;;;26.70;15.85;;;;;;;;;;4961150;28;20186;-78
2022/03/30 01:24:06;;;;;;;28.88;15.60;;;;;;;;;;4945100;29;20188;-78
2022/03/30 01:26:33;;;;;;;25.52;17.23;;;;;;;;;;4955602;28;20189;-78
2022/03/30 01:28:59;;;;;;;25.00;16.15;;;;;;;;;;4963118;28;20196;-78
2022/03/30 01:34:10;;;;;;;25.08;17.10;;;;;;;;;;4947218;29;20204;-78
2022/03/30 01:36:36;;;;;;;27.13;17.27;;;;;;;;;;4945304;29;20213;-78
2022/03/30 01:39:05;;;;;;;21.65;16.20;;;;;;;;;;4962277;28;20469;-78
2022/03/30 01:41:32;;;;;;;24.70;17.17;;;;;;;;;;4955125;29;20215;-78
2022/03/30 01:43:58;;;;;;;26.52;17.52;;;;;;;;;;4938652;29;20189;-77
2022/03/30 01:46:25;;;;;;;25.65;15.88;;;;;;;;;;4946233;29;20273;-77
2022/03/30 01:48:51;;;;;;;27.27;18.42;;;;;;;;;;4946971;29;20263;-78
2022/03/30 01:51:17;;;;;;;35.45;17.35;;;;;;;;;;4949560;29;20189;-78
2022/03/30 01:53:43;;;;;;;28.02;17.15;;;;;;;;;;4947008;29;20265;-77
2022/03/30 01:56:09;;;;;;;28.35;17.77;;;;;;;;;;4952464;28;20203;-77
2022/03/30 01:58:35;;;;;;;24.07;16.57;;;;;;;;;;4962025;28;20209;-77
2022/03/30 02:01:03;;;;;;;26.37;17.07;;;;;;;;;;4946265;29;20445;-77
2022/03/30 02:03:29;;;;;;;25.90;17.40;;;;;;;;;;4948122;29;20444;-77
2022/03/30 02:05:56;;;;;;;21.60;14.45;;;;;;;;;;4947564;29;20236;-77
2022/03/30 02:08:22;;;;;;;29.05;15.10;;;;;;;;;;4946063;29;20188;-77
2022/03/30 02:10:48;;;;;;;27.23;15.83;;;;;;;;;;4947225;29;20210;-77
2022/03/30 02:13:14;;;;;;;24.27;15.70;;;;;;;;;;4946236;29;20476;-77
2022/03/30 02:15:40;;;;;;;21.92;14.00;;;;;;;;;;4947609;28;20205;-77
2022/03/30 02:18:06;;;;;;;26.45;16.20;;;;;;;;;;4959781;28;20248;-78
2022/03/30 02:20:32;;;;;;;23.15;14.00;;;;;;;;;;4948008;29;20223;-77
2022/03/30 02:22:58;;;;;;;21.48;15.52;;;;;;;;;;4947366;29;20197;-77
2022/03/30 02:25:25;;;;;;;21.20;16.08;;;;;;;;;;4960898;29;20185;-77
2022/03/30 02:27:51;;;;;;;29.65;16.70;;;;;;;;;;4960346;28;20212;-77
2022/03/30 02:30:17;;;;;;;25.15;15.20;;;;;;;;;;4946227;29;20219;-77
2022/03/30 02:32:44;;;;;;;37.88;16.90;;;;;;;;;;4946481;29;20272;-77
2022/03/30 02:35:10;;;;;;;29.00;16.25;;;;;;;;;;4945980;29;20303;-77
2022/03/30 02:37:36;;;;;;;19.65;14.20;;;;;;;;;;4948177;29;20264;-77
2022/03/30 02:40:03;;;;;;;21.67;15.70;;;;;;;;;;4946121;29;20205;-78
2022/03/30 02:42:29;;;;;;;24.90;16.52;;;;;;;;;;4947136;29;20256;-77
2022/03/30 02:44:55;;;;;;;22.25;15.32;;;;;;;;;;4944940;29;20181;-77
2022/03/30 02:48:17;;;;;;;22.58;14.20;;;;;;;;;;4948750;29;20205;-77
2022/03/30 02:50:07;;;;;;;23.33;15.98;;;;;;;;;;4946609;29;20646;-78
2022/03/30 02:52:33;;;;;;;20.90;14.85;;;;;;;;;;4947352;29;20217;-78
2022/03/30 02:54:59;;;;;;;26.85;15.95;;;;;;;;;;4944980;29;20623;-78
2022/03/30 02:57:25;;;;;;;23.52;17.65;;;;;;;;;;4946820;29;20209;-78
2022/03/30 02:59:51;;;;;;;26.07;16.93;;;;;;;;;;4960129;29;20882;-78
2022/03/30 03:02:17;;;;;;;23.35;16.17;;;;;;;;;;4952126;28;20451;-78
2022/03/30 03:04:43;;;;;;;25.08;15.88;;;;;;;;;;4945264;29;20479;-78
2022/03/30 03:07:09;;;;;;;25.13;17.70;;;;;;;;;;4960159;29;20512;-78
2022/03/30 03:09:35;;;;;;;23.48;16.05;;;;;;;;;;4945281;29;20437;-78
2022/03/30 03:12:01;;;;;;;25.63;17.27;;;;;;;;;;4952173;29;20189;-78
2022/03/30 03:14:27;;;;;;;24.30;16.80;;;;;;;;;;4945181;29;20432;-78
2022/03/30 03:16:53;;;;;;;20.27;14.07;;;;;;;;;;4955809;28;20452;-78
2022/03/30 03:19:19;;;;;;;27.80;16.33;;;;;;;;;;4945784;29;20211;-77
2022/03/30 03:21:45;;;;;;;20.17;14.90;;;;;;;;;;4945282;29;20196;-77
2022/03/30 03:24:11;;;;;;;29.17;15.88;;;;;;;;;;4944383;29;20185;-77
2022/03/30 03:26:37;;;;;;;21.37;16.07;;;;;;;;;;4945061;29;20253;-78
2022/03/30 03:29:03;;;;;;;23.23;15.83;;;;;;;;;;4945749;29;20784;-78
2022/03/30 03:31:29;;;;;;;21.63;16.00;;;;;;;;;;4945313;29;20516;-78
2022/03/30 03:33:55;;;;;;;24.00;17.27;;;;;;;;;;4944147;29;20460;-78
2022/03/30 03:36:21;;;;;;;24.38;15.70;;;;;;;;;;4960846;28;20531;-78
2022/03/30 03:38:47;;;;;;;31.77;19.45;;;;;;;;;;4945554;29;20215;-78
2022/03/30 03:41:13;;;;;;;28.15;18.55;;;;;;;;;;4946207;29;20181;-78
2022/03/30 03:43:39;;;;;;;34.88;17.23;;;;;;;;;;4944796;29;20274;-78
2022/03/30 03:46:05;;;;;;;23.95;16.30;;;;;;;;;;4943537;29;20268;-78
2022/03/30 03:48:31;;;;;;;24.58;17.85;;;;;;;;;;4945095;29;20526;-78
2022/03/30 03:50:58;;;;;;;26.35;18.65;;;;;;;;;;4945425;29;20257;-78
2022/03/30 03:53:24;;;;;;;24.42;17.88;;;;;;;;;;4945995;29;20183;-78
2022/03/30 03:55:50;;;;;;;29.38;17.05;;;;;;;;;;4945397;29;20272;-77
2022/03/30 03:58:16;;;;;;;26.90;18.65;;;;;;;;;;4945022;29;20192;-77
2022/03/30 04:00:43;;;;;;;27.48;17.65;;;;;;;;;;4944191;29;20181;-77
2022/03/30 04:03:09;;;;;;;26.98;17.30;;;;;;;;;;4945459;29;20212;-77
2022/03/30 04:05:35;;;;;;;28.47;17.57;;;;;;;;;;4943620;29;20228;-77
2022/03/30 04:08:01;;;;;;;26.23;18.80;;;;;;;;;;4959770;28;20448;-77
2022/03/30 04:10:27;;;;;;;23.70;16.93;;;;;;;;;;4959815;28;20189;-77
2022/03/30 04:12:53;;;;;;;26.92;18.75;;;;;;;;;;4945096;29;20440;-79
2022/03/30 04:15:19;;;;;;;28.63;17.92;;;;;;;;;;4944811;29;20173;-77
2022/03/30 04:17:45;;;;;;;29.98;20.30;;;;;;;;;;4959928;28;20189;-77
2022/03/30 04:20:12;;;;;;;30.58;18.67;;;;;;;;;;4944574;29;20213;-77
2022/03/30 04:22:39;;;;;;;24.45;18.55;;;;;;;;;;4944004;29;20193;-77
2022/03/30 04:25:05;;;;;;;29.27;18.83;;;;;;;;;;4944651;29;20233;-78
2022/03/30 04:27:31;;;;;;;27.88;17.77;;;;;;;;;;4944372;29;20189;-78
2022/03/30 04:29:57;;;;;;;28.83;18.57;;;;;;;;;;4944721;29;20192;-77
2022/03/30 04:32:23;;;;;;;25.43;18.07;;;;;;;;;;4962893;28;20468;-78
2022/03/30 04:34:49;;;;;;;31.75;18.48;;;;;;;;;;4948859;29;20428;-77
2022/03/30 04:37:15;;;;;;;24.70;18.33;;;;;;;;;;4948924;29;20217;-77
2022/03/30 04:39:41;;;;;;;23.38;17.20;;;;;;;;;;4949129;29;20567;-77
2022/03/30 04:42:07;;;;;;;28.35;20.00;;;;;;;;;;4947773;29;20189;-77
2022/03/30 04:44:33;;;;;;;27.23;17.45;;;;;;;;;;4947000;29;20440;-78
2022/03/30 04:46:59;;;;;;;27.00;19.50;;;;;;;;;;4948203;29;20189;-78
2022/03/30 04:49:25;;;;;;;30.88;18.55;;;;;;;;;;4948641;29;20448;-77
2022/03/30 04:51:51;;;;;;;29.65;17.27;;;;;;;;;;4947454;29;20185;-77
2022/03/30 04:54:18;;;;;;;25.20;18.15;;;;;;;;;;4948554;29;20196;-77
2022/03/30 04:56:45;;;;;;;27.23;17.45;;;;;;;;;;4947810;29;20318;-77
2022/03/30 04:59:11;;;;;;;25.70;18.38;;;;;;;;;;4947883;29;20213;-78
2022/03/30 05:01:37;;;;;;;28.25;18.58;;;;;;;;;;4944206;29;20197;-77
2022/03/30 05:04:04;;;;;;;29.30;19.63;;;;;;;;;;4962369;29;20189;-77
2022/03/30 05:06:29;;;;;;;37.88;21.02;;;;;;;;;;4962772;28;20201;-77
2022/03/30 05:08:55;;;;;;;24.30;19.27;;;;;;;;;;4947050;29;20248;-77
2022/03/30 05:11:21;;;;;;;31.23;20.55;;;;;;;;;;4948281;29;20459;-77
2022/03/30 05:13:48;;;;;;;26.53;19.43;;;;;;;;;;4947322;29;20440;-77
2022/03/30 05:16:15;;;;;;;28.13;18.25;;;;;;;;;;4946564;29;20483;-78
2022/03/30 05:18:41;;;;;;;32.30;20.33;;;;;;;;;;4948058;29;20208;-78
2022/03/30 05:21:07;;;;;;;35.55;21.88;;;;;;;;;;4947376;29;20196;-77
2022/03/30 05:23:36;;;;;;;33.03;19.70;;;;;;;;;;4945332;29;20695;-77
2022/03/30 05:26:03;;;;;;;34.20;21.30;;;;;;;;;;4947761;29;20330;-77
2022/03/30 05:28:29;;;;;;;36.20;21.20;;;;;;;;;;4949456;29;20181;-77
2022/03/30 05:30:55;;;;;;;32.63;23.02;;;;;;;;;;4946138;29;20181;-77
2022/03/30 05:33:21;;;;;;;30.92;20.02;;;;;;;;;;4946649;29;20184;-78
2022/03/30 05:35:50;;;;;;;33.05;22.95;;;;;;;;;;4946866;29;20246;-78
2022/03/30 05:38:16;;;;;;;33.80;21.65;;;;;;;;;;4946468;29;20196;-78
2022/03/30 05:40:42;;;;;;;31.67;22.55;;;;;;;;;;4948199;29;20213;-78
2022/03/30 05:43:08;;;;;;;32.22;22.77;;;;;;;;;;4946465;29;20209;-77
2022/03/30 05:45:34;;;;;;;37.13;23.10;;;;;;;;;;4943014;29;20315;-76
2022/03/30 05:48:01;;;;;;;33.80;21.52;;;;;;;;;;4949682;29;20189;-76
2022/03/30 05:50:27;;;;;;;27.38;20.50;;;;;;;;;;4947242;29;20184;-75
2022/03/30 05:52:53;;;;;;;33.95;23.23;;;;;;;;;;4960833;29;20185;-75
2022/03/30 05:55:19;;;;;;;38.00;24.90;;;;;;;;;;4958732;28;20520;-75
2022/03/30 05:57:45;;;;;;;35.92;23.17;;;;;;;;;;4948082;29;20188;-75
2022/03/30 06:00:11;;;;;;;42.23;23.93;;;;;;;;;;4945382;29;20217;-75
2022/03/30 06:02:37;;;;;;;34.33;21.50;;;;;;;;;;4946975;29;20445;-75
2022/03/30 06:05:04;;;;;;;37.17;23.65;;;;;;;;;;4949444;29;20229;-75
2022/03/30 06:07:30;;;;;;;34.25;23.65;;;;;;;;;;4946805;29;20220;-75
2022/03/30 06:09:56;;;;;;;40.03;23.70;;;;;;;;;;4947267;29;20189;-75
2022/03/30 06:12:25;;;;;;;35.42;24.02;;;;;;;;;;4966541;28;20700;-75
2022/03/30 06:14:51;;;;;;;37.75;25.20;;;;;;;;;;4949463;29;20231;-75
2022/03/30 06:17:18;;;;;;;42.85;27.38;;;;;;;;;;4944130;29;20281;-75
2022/03/30 06:19:45;;;;;;;31.65;23.98;;;;;;;;;;4945005;29;20248;-75
2022/03/30 06:22:11;;;;;;;41.92;24.98;;;;;;;;;;4946490;29;20183;-76
2022/03/30 06:24:38;;;;;;;39.60;25.20;;;;;;;;;;4947690;29;20187;-75
2022/03/30 06:27:05;;;;;;;43.78;25.48;;;;;;;;;;4946405;29;20185;-76
2022/03/30 06:29:32;;;;;;;37.47;25.52;;;;;;;;;;4945724;29;20216;-76
2022/03/30 06:31:58;;;;;;;35.92;27.13;;;;;;;;;;4961874;28;20195;-76
2022/03/30 06:34:24;;;;;;;40.97;26.93;;;;;;;;;;4945600;29;20255;-76
2022/03/30 06:36:50;;;;;;;43.37;28.10;;;;;;;;;;4945351;29;20445;-76
2022/03/30 06:39:16;;;;;;;43.90;26.98;;;;;;;;;;4947027;29;20973;-76
2022/03/30 06:41:43;;;;;;;37.75;26.05;;;;;;;;;;4946810;29;20189;-76
2022/03/30 06:44:10;;;;;;;46.30;28.73;;;;;;;;;;4946584;29;20196;-76
2022/03/30 06:46:38;;;;;;;50.40;27.98;;;;;;;;;;4945772;29;20192;-76
2022/03/30 06:49:05;;;;;;;39.80;27.80;;;;;;;;;;4941295;29;20267;-76
2022/03/30 06:51:31;;;;;;;38.13;24.52;;;;;;;;;;4946519;29;20260;-75
2022/03/30 06:53:57;;;;;;;45.72;26.65;;;;;;;;;;4945587;29;20189;-76
2022/03/30 06:56:23;;;;;;;40.65;28.15;;;;;;;;;;4960717;29;20639;-76
2022/03/30 06:58:50;;;;;;;47.17;27.38;;;;;;;;;;4941718;29;20504;-75
2022/03/30 07:01:16;;;;;;;51.65;30.75;;;;;;;;;;4941910;29;20320;-76
2022/03/30 07:03:42;;;;;;;51.97;28.83;;;;;;;;;;4945515;29;20177;-75
2022/03/30 07:06:08;;;;;;;41.75;28.15;;;;;;;;;;4943093;29;20224;-75
2022/03/30 07:11:19;;;;;;;50.05;29.10;;;;;;;;;;4936427;29;20608;-75
2022/03/30 07:13:45;;;;;;;48.22;28.60;;;;;;;;;;4946133;29;20661;-75
2022/03/30 07:16:12;;;;;;;48.05;29.60;;;;;;;;;;4944925;29;20215;-75
2022/03/30 07:18:38;;;;;;;45.08;27.92;;;;;;;;;;4946265;29;20189;-75
2022/03/30 07:21:05;;;;;;;50.83;29.43;;;;;;;;;;4945339;29;20189;-75
2022/03/30 07:23:30;;;;;;;45.97;29.67;;;;;;;;;;4941328;29;20425;-75
2022/03/30 07:26:00;;;;;;;43.67;30.33;;;;;;;;;;4946139;29;20188;-75
2022/03/30 07:28:26;;;;;;;48.13;29.52;;;;;;;;;;4959696;28;20189;-75
2022/03/30 07:30:53;;;;;;;46.63;29.00;;;;;;;;;;4944387;29;20258;-75
2022/03/30 07:33:19;;;;;;;52.15;31.48;;;;;;;;;;4945273;29;20433;-75
2022/03/30 07:35:48;;;;;;;48.92;29.80;;;;;;;;;;4943605;29;20188;-75
2022/03/30 07:38:15;;;;;;;48.40;29.20;;;;;;;;;;4944112;29;20189;-76
2022/03/30 07:40:41;;;;;;;51.03;31.65;;;;;;;;;;4945969;29;20212;-75
2022/03/30 07:43:07;;;;;;;46.35;29.15;;;;;;;;;;4946040;29;20177;-75
2022/03/30 07:45:34;;;;;;;54.13;33.47;;;;;;;;;;4941026;29;20220;-76
2022/03/30 07:48:00;;;;;;;48.13;32.35;;;;;;;;;;4944999;29;20189;-75
2022/03/30 07:50:26;;;;;;;57.08;35.45;;;;;;;;;;4951037;28;20690;-75
2022/03/30 07:52:52;;;;;;;50.75;30.27;;;;;;;;;;4945076;29;20197;-74
2022/03/30 07:55:18;;;;;;;57.73;31.20;;;;;;;;;;4944741;29;20254;-75
2022/03/30 07:57:44;;;;;;;49.83;32.83;;;;;;;;;;4941503;29;20445;-75
2022/03/30 08:00:11;;;;;;;60.97;32.17;;;;;;;;;;4944867;29;20468;-75
2022/03/30 08:02:37;;;;;;;48.72;31.98;;;;;;;;;;4943986;29;20657;-75
2022/03/30 08:05:04;;;;;;;60.35;36.17;;;;;;;;;;4943271;29;20232;-76
2022/03/30 08:07:30;;;;;;;55.92;33.65;;;;;;;;;;4943571;29;20192;-75
2022/03/30 08:09:56;;;;;;;55.65;33.72;;;;;;;;;;4945045;29;20177;-75
2022/03/30 08:12:24;;;;;;;53.55;32.13;;;;;;;;;;4943813;29;20192;-76
2022/03/30 08:14:51;;;;;;;50.42;33.63;;;;;;;;;;4959750;28;20193;-76
2022/03/30 08:17:17;;;;;;;53.40;32.80;;;;;;;;;;4941253;29;20189;-76
2022/03/30 08:19:43;;;;;;;55.00;34.78;;;;;;;;;;4943064;28;20201;-75
2022/03/30 08:22:28;;;;;;;57.90;32.92;;;;;;;;;;4944079;29;20197;-75
2022/03/30 08:24:54;;;;;;;54.97;33.70;;;;;;;;;;4943412;29;20177;-76
2022/03/30 08:27:21;;;;;;;58.83;35.53;;;;;;;;;;4941376;29;20189;-75
2022/03/30 08:29:48;;;;;;;56.22;34.33;;;;;;;;;;4944621;29;20885;-75
2022/03/30 08:32:15;;;;;;;55.58;35.35;;;;;;;;;;4949438;29;20188;-76
2022/03/30 08:34:42;;;;;;;60.72;36.53;;;;;;;;;;4946286;29;20570;-75
2022/03/30 08:37:08;;;;;;;52.83;36.20;;;;;;;;;;4943793;29;20308;-75
2022/03/30 08:39:35;;;;;;;51.50;35.92;;;;;;;;;;4943161;29;20260;-76
2022/03/30 08:42:02;;;;;;;60.65;35.85;;;;;;;;;;4946741;29;20204;-75
2022/03/30 08:44:29;;;;;;;62.88;38.53;;;;;;;;;;4941469;29;20177;-75
2022/03/30 08:46:55;;;;;;;55.90;33.25;;;;;;;;;;4946907;29;20186;-75
2022/03/30 08:49:21;;;;;;;60.72;36.13;;;;;;;;;;4945369;29;20195;-75
2022/03/30 08:51:47;;;;;;;56.03;33.60;;;;;;;;;;4951825;29;20212;-75
2022/03/30 08:54:14;;;;;;;53.78;34.70;;;;;;;;;;4958209;29;20186;-75
2022/03/30 08:56:41;;;;;;;51.95;31.60;;;;;;;;;;4943696;29;20189;-75
2022/03/30 08:59:08;;;;;;;58.42;35.30;;;;;;;;;;4945114;29;20220;-75
2022/03/30 09:01:35;;;;;;;52.05;33.78;;;;;;;;;;4944146;29;20185;-74
2022/03/30 09:04:03;;;;;;;57.85;35.97;;;;;;;;;;4944711;29;20177;-75
2022/03/30 09:06:35;;;;;;;55.85;32.78;;;;;;;;;;4944469;29;20217;-75
2022/03/30 09:09:01;;;;;;;56.30;34.65;;;;;;;;;;4944259;29;20190;-75
2022/03/30 09:11:30;;;;;;;58.78;35.70;;;;;;;;;;4945068;29;20215;-75
2022/03/30 09:14:06;;;;;;;72.35;36.80;;;;;;;;;;4953277;29;20190;-75
2022/03/30 09:16:39;;;;;;;56.63;34.40;;;;;;;;;;4940413;29;20248;-75
2022/03/30 09:19:06;;;;;;;55.17;34.45;;;;;;;;;;4961294;29;20238;-74
2022/03/30 09:21:41;;;;;;;62.10;35.38;;;;;;;;;;4947913;29;20169;-75
2022/03/30 09:24:07;;;;;;;54.60;36.35;;;;;;;;;;4950915;29;20181;-75
2022/03/30 09:26:34;;;;;;;72.72;39.75;;;;;;;;;;4948833;29;20193;-75
2022/03/30 09:29:00;;;;;;;62.72;37.97;;;;;;;;;;4948433;29;20189;-75
2022/03/30 09:31:26;;;;;;;69.55;38.17;;;;;;;;;;4961946;28;20200;-75
2022/03/30 09:33:53;;;;;;;55.25;36.03;;;;;;;;;;4947865;29;20197;-75
2022/03/30 09:36:29;;;;;;;69.82;36.85;;;;;;;;;;4947199;29;20177;-75
2022/03/30 09:38:56;;;;;;;53.88;36.15;;;;;;;;;;4945682;29;20208;-74
2022/03/30 09:41:21;;;;;;;54.88;36.65;;;;;;;;;;4939586;29;20280;-74
2022/03/30 09:43:48;;;;;;;60.70;35.53;;;;;;;;;;4947782;29;20686;-74
2022/03/30 09:46:15;;;;;;;50.80;34.10;;;;;;;;;;4949126;29;20514;-74
2022/03/30 09:48:49;;;;;;;47.92;31.38;;;;;;;;;;4948621;29;20195;-75
2022/03/30 09:51:16;;;;;;;54.67;34.83;;;;;;;;;;4946667;29;20190;-74
2022/03/30 09:53:42;;;;;;;56.20;34.92;;;;;;;;;;4947504;29;20213;-74
2022/03/30 09:56:16;;;;;;;49.92;33.55;;;;;;;;;;4946088;29;20640;-75
2022/03/30 09:58:43;;;;;;;58.33;34.63;;;;;;;;;;4961152;28;20193;-74
2022/03/30 10:01:13;;;;;;;56.72;34.35;;;;;;;;;;4946379;29;20201;-74
2022/03/30 10:03:42;;;;;;;51.65;32.30;;;;;;;;;;4947697;29;20182;-74
2022/03/30 10:06:09;;;;;;;54.42;34.47;;;;;;;;;;4946596;29;20216;-74
2022/03/30 10:08:35;;;;;;;58.03;35.95;;;;;;;;;;4946492;29;20189;-74
2022/03/30 10:11:01;;;;;;;62.22;34.78;;;;;;;;;;4947471;29;20580;-75
2022/03/30 10:13:28;;;;;;;51.05;35.22;;;;;;;;;;4946775;29;20209;-74
2022/03/30 10:15:54;;;;;;;54.97;36.30;;;;;;;;;;4946507;29;20185;-74
2022/03/30 10:18:20;;;;;;;53.75;34.67;;;;;;;;;;4942406;29;20264;-74
2022/03/30 10:20:48;;;;;;;60.22;35.90;;;;;;;;;;4949652;29;20207;-75
2022/03/30 10:23:27;;;;;;;62.03;35.75;;;;;;;;;;4946915;29;20189;-74
2022/03/30 10:25:59;;;;;;;46.05;29.92;;;;;;;;;;4941393;29;20189;-75
2022/03/30 10:28:46;;;;;;;49.85;30.15;;;;;;;;;;4944742;29;20200;-75
2022/03/30 10:31:12;;;;;;;31.40;24.05;;;;;;;;;;4942049;29;20204;-75
2022/03/30 10:33:44;;;;;;;37.90;27.42;;;;;;;;;;4947187;29;20188;-75
2022/03/30 10:36:25;;;;;;;47.70;28.50;;;;;;;;;;4946185;29;20584;-75
2022/03/30 10:39:11;;;;;;;50.78;29.35;;;;;;;;;;4944000;29;20242;-74
2022/03/30 10:42:04;;;;;;;44.15;27.92;;;;;;;;;;4945528;29;20215;-75
2022/03/30 10:44:36;;;;;;;41.50;26.63;;;;;;;;;;4960392;28;20248;-74
2022/03/30 10:47:05;;;;;;;38.55;26.95;;;;;;;;;;4939445;29;20246;-75
2022/03/30 10:49:42;;;;;;;41.13;29.05;;;;;;;;;;4944679;29;20193;-76
2022/03/30 10:52:25;;;;;;;45.35;30.15;;;;;;;;;;4944563;29;20206;-76
2022/03/30 10:54:55;;;;;;;42.97;29.23;;;;;;;;;;4945350;29;20186;-76
2022/03/30 10:58:01;;;;;;;45.63;30.67;;;;;;;;;;4960845;28;20192;-75
2022/03/30 11:00:36;;;;;;;44.08;29.30;;;;;;;;;;4924334;29;20220;-76
2022/03/30 11:03:20;;;;;;;44.67;30.35;;;;;;;;;;4924543;29;20220;-75
2022/03/30 11:06:06;;;;;;;46.05;28.33;;;;;;;;;;4924133;29;20260;-76
2022/03/30 11:08:32;;;;;;;44.28;30.05;;;;;;;;;;4924211;29;20221;-76
2022/03/30 11:11:00;;;;;;;48.33;29.67;;;;;;;;;;4909053;29;20291;-76
2022/03/30 11:13:27;;;;;;;47.35;29.70;;;;;;;;;;4924561;29;20577;-76
2022/03/30 11:15:59;;;;;;;47.15;29.55;;;;;;;;;;4921372;29;20208;-76
2022/03/30 11:18:25;;;;;;;48.08;30.05;;;;;;;;;;4924211;29;20202;-76
2022/03/30 11:21:12;;;;;;;51.67;30.95;;;;;;;;;;4924570;29;20216;-76
2022/03/30 11:23:55;;;;;;;51.28;32.53;;;;;;;;;;4923969;29;20196;-76
2022/03/30 11:26:22;;;;;;;46.90;29.77;;;;;;;;;;4921405;29;20270;-76
2022/03/30 11:28:48;;;;;;;58.50;32.47;;;;;;;;;;4924246;29;20194;-76
2022/03/30 11:31:24;;;;;;;48.80;32.63;;;;;;;;;;4935045;29;20205;-76
2022/03/30 11:34:09;;;;;;;48.55;31.95;;;;;;;;;;4937761;29;20496;-75
2022/03/30 11:36:36;;;;;;;51.42;29.33;;;;;;;;;;4953588;28;20281;-76
2022/03/30 11:39:02;;;;;;;51.95;32.97;;;;;;;;;;4944880;29;20209;-75
2022/03/30 11:41:29;;;;;;;52.63;29.83;;;;;;;;;;4945282;29;20199;-77
2022/03/30 11:46:40;;;;;;;54.72;30.52;;;;;;;;;;4944792;29;20292;-77
2022/03/30 11:49:06;;;;;;;48.95;30.73;;;;;;;;;;4944939;29;20213;-77
2022/03/30 11:51:33;;;;;;;55.40;32.17;;;;;;;;;;4944978;29;20200;-77
2022/03/30 11:54:16;;;;;;;49.85;32.70;;;;;;;;;;4943025;29;20185;-77
2022/03/30 11:56:42;;;;;;;49.08;29.73;;;;;;;;;;4953773;28;20255;-77
2022/03/30 11:59:08;;;;;;;51.92;29.52;;;;;;;;;;4945712;29;20207;-77
2022/03/30 12:01:35;;;;;;;51.90;30.08;;;;;;;;;;4943374;29;20187;-77
2022/03/30 12:04:01;;;;;;;49.03;29.90;;;;;;;;;;4943040;29;20189;-77
2022/03/30 12:06:27;;;;;;;48.90;30.42;;;;;;;;;;4942317;29;20236;-76
2022/03/30 12:08:53;;;;;;;51.27;32.60;;;;;;;;;;4956067;28;20189;-78
2022/03/30 12:11:20;;;;;;;48.30;29.20;;;;;;;;;;4936845;29;20473;-78
2022/03/30 12:13:51;;;;;;;46.70;29.70;;;;;;;;;;4945090;29;20457;-80
2022/03/30 12:16:17;;;;;;;60.50;31.05;;;;;;;;;;4940619;29;20196;-79
2022/03/30 12:18:43;;;;;;;45.80;27.95;;;;;;;;;;4945878;29;20592;-80
2022/03/30 12:21:09;;;;;;;48.43;29.60;;;;;;;;;;4945184;29;20536;-80
2022/03/30 12:23:35;;;;;;;49.05;29.77;;;;;;;;;;4943650;29;20437;-79
2022/03/30 12:26:12;;;;;;;48.08;29.25;;;;;;;;;;4945243;29;20447;-79
2022/03/30 12:28:38;;;;;;;46.92;28.67;;;;;;;;;;4945326;29;20192;-80
2022/03/30 12:31:07;;;;;;;47.10;29.80;;;;;;;;;;4959953;28;20235;-80
2022/03/30 12:33:41;;;;;;;54.08;31.70;;;;;;;;;;4944158;29;20186;-80
2022/03/30 12:36:13;;;;;;;49.60;30.25;;;;;;;;;;4949342;29;20642;-80
2022/03/30 12:38:39;;;;;;;50.65;29.40;;;;;;;;;;4959489;28;20187;-80
2022/03/30 12:41:05;;;;;;;55.70;29.75;;;;;;;;;;4955832;29;20189;-80
2022/03/30 12:43:33;;;;;;;50.47;29.08;;;;;;;;;;4959923;28;20191;-80
2022/03/30 12:46:01;;;;;;;47.03;27.25;;;;;;;;;;4945493;29;20244;-80
2022/03/30 12:48:31;;;;;;;48.17;27.30;;;;;;;;;;4945564;28;20173;-80
2022/03/30 12:50:59;;;;;;;51.55;28.90;;;;;;;;;;4950356;29;20206;-80
2022/03/30 12:53:30;;;;;;;48.35;27.38;;;;;;;;;;4948209;29;20726;-81
2022/03/30 12:55:56;;;;;;;50.60;26.90;;;;;;;;;;4949539;29;20188;-80
2022/03/30 12:58:26;;;;;;;46.10;26.63;;;;;;;;;;4948520;29;20243;-80
2022/03/30 13:00:53;;;;;;;49.70;27.00;;;;;;;;;;4949533;29;20204;-80
2022/03/30 13:03:21;;;;;;;50.47;25.40;;;;;;;;;;4949089;29;20193;-80
2022/03/30 13:06:01;;;;;;;44.60;24.42;;;;;;;;;;4954394;29;20227;-80
2022/03/30 13:08:27;;;;;;;44.95;27.00;;;;;;;;;;4948050;29;20191;-80
2022/03/30 13:11:00;;;;;;;41.63;24.85;;;;;;;;;;4948825;29;20259;-80
2022/03/30 13:13:27;;;;;;;46.33;23.52;;;;;;;;;;4961625;29;20280;-81
2022/03/30 13:16:05;;;;;;;39.20;24.33;;;;;;;;;;4948697;29;20190;-80
2022/03/30 13:18:31;;;;;;;35.60;23.13;;;;;;;;;;4947796;28;20177;-80
2022/03/30 13:21:01;;;;;;;40.85;22.58;;;;;;;;;;4948567;29;20701;-80
2022/03/30 13:23:45;;;;;;;39.55;24.58;;;;;;;;;;4947837;29;20193;-81
2022/03/30 13:26:29;;;;;;;35.72;22.77;;;;;;;;;;4958961;29;20185;-80
2022/03/30 13:28:56;;;;;;;35.45;24.05;;;;;;;;;;4948274;29;20201;-80
2022/03/30 13:31:23;;;;;;;38.30;23.38;;;;;;;;;;4961637;28;20597;-80
2022/03/30 13:33:50;;;;;;;42.63;24.85;;;;;;;;;;4963153;29;20180;-79
2022/03/30 13:36:16;;;;;;;35.80;20.60;;;;;;;;;;4947765;29;20182;-80
2022/03/30 13:38:49;;;;;;;39.33;24.73;;;;;;;;;;4954882;29;20222;-80
2022/03/30 13:41:16;;;;;;;41.10;22.67;;;;;;;;;;4948456;29;20182;-80
2022/03/30 13:43:42;;;;;;;34.13;22.70;;;;;;;;;;4947979;29;20177;-80
2022/03/30 13:46:08;;;;;;;37.63;22.35;;;;;;;;;;4962613;28;20279;-80
2022/03/30 13:48:34;;;;;;;35.75;21.25;;;;;;;;;;4947954;28;20183;-80
2022/03/30 13:51:01;;;;;;;36.47;22.38;;;;;;;;;;4947232;29;20195;-80
2022/03/30 13:53:27;;;;;;;31.42;20.13;;;;;;;;;;4946463;29;20247;-80
2022/03/30 13:55:53;;;;;;;30.00;20.40;;;;;;;;;;4958424;29;20193;-80
2022/03/30 13:58:19;;;;;;;38.67;23.35;;;;;;;;;;4962774;28;20264;-80
2022/03/30 14:00:45;;;;;;;27.85;19.90;;;;;;;;;;4948463;29;20201;-80
2022/03/30 14:03:11;;;;;;;31.73;20.67;;;;;;;;;;4961004;28;20202;-80
2022/03/30 14:05:37;;;;;;;31.17;20.00;;;;;;;;;;4946330;29;20477;-80
2022/03/30 14:08:03;;;;;;;34.73;20.03;;;;;;;;;;4947194;29;21015;-80
2022/03/30 14:10:30;;;;;;;35.58;22.10;;;;;;;;;;4947842;29;20613;-79
2022/03/30 14:12:56;;;;;;;38.28;23.45;;;;;;;;;;4948231;29;20177;-79
2022/03/30 14:15:22;;;;;;;37.30;22.27;;;;;;;;;;4947350;29;20618;-79
2022/03/30 14:17:49;;;;;;;34.72;21.25;;;;;;;;;;4946965;29;20738;-80
2022/03/30 14:20:15;;;;;;;37.63;23.25;;;;;;;;;;4957218;29;20222;-80
2022/03/30 14:22:43;;;;;;;37.70;21.42;;;;;;;;;;4947409;29;20188;-80
2022/03/30 14:25:10;;;;;;;44.08;21.88;;;;;;;;;;4961949;29;20219;-80
2022/03/30 14:27:36;;;;;;;42.65;22.40;;;;;;;;;;4947932;29;20177;-79
2022/03/30 14:30:03;;;;;;;36.88;22.38;;;;;;;;;;4946875;29;20615;-80